createdAt,value
2022-08-20T00:03:09.341Z,22.73
2022-08-20T00:08:13.130Z,22.50
2022-08-20T00:13:21.756Z,22.26
2022-08-20T00:18:24.634Z,22.14
2022-08-20T00:23:27.442Z,22.14
2022-08-20T00:28:30.258Z,22.12
2022-08-20T00:33:33.313Z,22.05
2022-08-20T00:38:37.947Z,21.92
2022-08-20T00:43:48.473Z,21.76
2022-08-20T00:48:55.871Z,21.54
2022-08-20T00:54:22.893Z,21.42
2022-08-20T00:59:31.027Z,21.32
2022-08-20T01:04:35.649Z,21.24
2022-08-20T01:09:58.155Z,21.22
2022-08-20T01:15:04.778Z,21.22
2022-08-20T01:20:16.015Z,21.19
2022-08-20T01:25:44.512Z,21.08
2022-08-20T01:30:47.205Z,21.00
2022-08-20T01:35:50.543Z,21.01
2022-08-20T01:41:30.513Z,21.01
2022-08-20T01:46:38.142Z,20.96
2022-08-20T01:51:46.778Z,20.90
2022-08-20T01:57:02.401Z,20.87
2022-08-20T02:02:07.206Z,20.87
2022-08-20T02:07:18.939Z,20.86
2022-08-20T02:12:21.678Z,20.87
2022-08-20T02:17:25.975Z,20.83
2022-08-20T02:22:40.584Z,20.79
2022-08-20T02:27:49.641Z,20.83
2022-08-20T02:32:52.395Z,20.83
2022-08-20T02:37:59.216Z,20.84
2022-08-20T02:43:04.543Z,20.83
2022-08-20T02:48:07.398Z,20.80
2022-08-20T02:53:10.082Z,20.78
2022-08-20T02:58:13.207Z,20.72
2022-08-20T03:03:22.514Z,20.67
2022-08-20T03:08:27.296Z,20.63
2022-08-20T03:13:30.080Z,20.59
2022-08-20T03:18:37.523Z,20.61
2022-08-20T03:23:41.022Z,20.64
2022-08-20T03:28:44.369Z,20.68
2022-08-20T03:33:52.980Z,20.71
2022-08-20T03:39:03.477Z,20.74
2022-08-20T03:44:07.192Z,20.71
2022-08-20T03:49:10.301Z,20.66
2022-08-20T03:54:13.104Z,20.67
2022-08-20T03:59:15.813Z,20.67
2022-08-20T04:04:18.528Z,20.69
2022-08-20T04:09:21.304Z,20.67
2022-08-20T04:14:23.983Z,20.66
2022-08-20T04:19:30.135Z,20.70
2022-08-20T04:24:35.711Z,20.72
2022-08-20T04:29:43.119Z,20.71
2022-08-20T04:34:47.330Z,20.66
2022-08-20T04:40:26.543Z,20.61
2022-08-20T04:45:29.213Z,20.55
2022-08-20T04:50:36.533Z,20.56
2022-08-20T04:55:42.903Z,20.57
2022-08-20T05:00:48.302Z,20.64
2022-08-20T05:05:52.022Z,20.79
2022-08-20T05:10:58.126Z,20.92
2022-08-20T05:16:19.494Z,21.03
2022-08-20T05:21:22.217Z,21.10
2022-08-20T05:26:26.528Z,21.07
2022-08-20T05:31:31.713Z,21.06
2022-08-20T05:36:37.213Z,21.15
2022-08-20T05:41:40.980Z,21.37
2022-08-20T05:46:45.523Z,21.70
2022-08-20T05:51:51.090Z,21.99
2022-08-20T05:56:53.949Z,22.23
2022-08-20T06:01:56.645Z,22.40
2022-08-20T06:07:05.408Z,22.48
2022-08-20T06:12:09.471Z,22.63
2022-08-20T06:17:15.350Z,22.84
2022-08-20T06:22:23.282Z,23.00
2022-08-20T06:27:29.658Z,23.22
2022-08-20T06:32:33.840Z,23.43
2022-08-20T06:37:39.417Z,23.54
2022-08-20T06:42:48.073Z,23.64
2022-08-20T06:47:53.912Z,23.80
2022-08-20T06:52:57.003Z,24.03
2022-08-20T06:58:02.726Z,24.29
2022-08-20T07:03:05.751Z,24.61
2022-08-20T07:08:14.662Z,24.98
2022-08-20T07:13:17.547Z,25.28
2022-08-20T07:18:28.416Z,25.51
2022-08-20T07:23:31.803Z,25.73
2022-08-20T07:28:34.736Z,25.77
2022-08-20T07:33:40.660Z,25.82
2022-08-20T07:38:46.757Z,25.88
2022-08-20T07:43:49.494Z,25.97
2022-08-20T07:48:52.310Z,26.15
2022-08-20T07:53:55.095Z,26.48
2022-08-20T07:58:59.943Z,26.82
2022-08-20T08:04:03.150Z,26.96
2022-08-20T08:09:09.813Z,26.80
2022-08-20T08:14:13.349Z,26.63
2022-08-20T08:19:18.364Z,26.60
2022-08-20T08:24:25.314Z,26.66
2022-08-20T08:29:30.699Z,26.49
2022-08-20T08:34:36.500Z,26.40
2022-08-20T08:39:39.277Z,26.28
2022-08-20T08:44:42.264Z,26.20
2022-08-20T08:49:47.567Z,26.29
2022-08-20T08:54:56.511Z,26.43
2022-08-20T09:00:03.913Z,26.82
2022-08-20T09:05:17.828Z,27.41
2022-08-20T09:10:22.970Z,27.99
2022-08-20T09:15:26.300Z,28.20
2022-08-20T09:20:29.265Z,28.28
2022-08-20T09:25:32.085Z,28.44
2022-08-20T09:30:35.054Z,28.81
2022-08-20T09:35:40.452Z,29.11
2022-08-20T09:40:43.382Z,29.36
2022-08-20T09:45:46.075Z,29.58
2022-08-20T09:50:50.208Z,29.66
2022-08-20T09:55:56.056Z,29.67
2022-08-20T10:01:07.362Z,29.59
2022-08-20T10:06:19.945Z,29.50
2022-08-20T10:11:22.775Z,29.43
2022-08-20T10:16:25.509Z,29.35
2022-08-20T10:21:30.097Z,29.32
2022-08-20T10:26:33.114Z,29.21
2022-08-20T10:31:35.849Z,29.01
2022-08-20T10:36:38.580Z,28.82
2022-08-20T10:41:41.607Z,28.69
2022-08-20T10:46:45.868Z,28.58
2022-08-20T10:51:48.607Z,28.62
2022-08-20T10:56:51.457Z,28.72
2022-08-20T11:01:54.240Z,28.80
2022-08-20T11:06:57.009Z,28.93
2022-08-20T11:11:59.810Z,29.10
2022-08-20T11:17:03.206Z,29.41
2022-08-20T11:22:05.919Z,29.77
2022-08-20T11:27:09.780Z,30.20
2022-08-20T11:32:12.581Z,30.81
2022-08-20T11:37:17.202Z,31.41
2022-08-20T11:42:20.161Z,31.94
2022-08-20T11:47:26.875Z,32.19
2022-08-20T11:52:30.119Z,32.24
2022-08-20T11:57:35.360Z,32.06
2022-08-20T12:02:38.130Z,31.79
2022-08-20T12:07:41.537Z,31.64
2022-08-20T12:12:44.335Z,31.71
2022-08-20T12:17:47.272Z,31.75
2022-08-20T12:22:50.189Z,31.36
2022-08-20T12:27:53.113Z,31.05
2022-08-20T12:32:56.025Z,31.02
2022-08-20T12:38:02.312Z,31.23
2022-08-20T12:43:05.595Z,31.37
2022-08-20T12:48:11.687Z,31.51
2022-08-20T12:53:14.422Z,31.60
2022-08-20T12:58:17.098Z,31.70
2022-08-20T13:03:22.073Z,31.68
2022-08-20T13:08:24.793Z,31.85
2022-08-20T13:13:27.629Z,31.94
2022-08-20T13:18:30.429Z,31.82
2022-08-20T13:23:33.121Z,31.69
2022-08-20T13:28:36.166Z,31.95
2022-08-20T13:33:38.878Z,32.29
2022-08-20T13:38:41.631Z,32.59
2022-08-20T13:43:44.326Z,32.54
2022-08-20T13:48:47.018Z,32.41
2022-08-20T13:53:49.785Z,32.36
2022-08-20T13:58:53.117Z,32.23
2022-08-20T14:03:56.018Z,31.99
2022-08-20T14:08:58.965Z,31.59
2022-08-20T14:14:02.747Z,31.33
2022-08-20T14:19:06.071Z,31.07
2022-08-20T14:24:08.796Z,30.66
2022-08-20T14:29:11.523Z,30.07
2022-08-20T14:34:14.237Z,29.19
2022-08-20T14:39:20.517Z,28.46
2022-08-20T14:44:23.411Z,27.98
2022-08-20T14:49:26.203Z,27.70
2022-08-20T14:54:29.082Z,27.41
2022-08-20T14:59:32.158Z,27.28
2022-08-20T15:04:36.061Z,27.12
2022-08-20T15:09:39.011Z,26.79
2022-08-20T15:14:41.718Z,26.42
2022-08-20T15:19:44.666Z,26.18
2022-08-20T15:24:48.341Z,25.98
2022-08-20T15:29:52.464Z,25.88
2022-08-20T15:34:55.175Z,25.95
2022-08-20T15:39:57.913Z,25.95
2022-08-20T15:45:00.730Z,25.99
2022-08-20T15:50:09.374Z,25.89
2022-08-20T15:55:17.850Z,25.71
2022-08-20T16:00:25.812Z,25.55
2022-08-20T16:05:50.486Z,25.28
2022-08-20T16:11:18.449Z,25.06
2022-08-20T16:16:33.284Z,24.73
2022-08-20T16:21:40.435Z,24.34
2022-08-20T16:27:13.423Z,23.91
2022-08-20T16:32:25.868Z,23.50
2022-08-20T16:37:33.187Z,23.26
2022-08-20T16:42:42.426Z,23.11
2022-08-20T16:47:46.955Z,22.99
2022-08-20T16:52:51.785Z,23.28
2022-08-20T16:57:54.948Z,23.31
2022-08-20T17:03:01.632Z,23.13
2022-08-20T17:08:07.450Z,22.99
2022-08-20T17:13:15.996Z,22.88
2022-08-20T17:18:27.542Z,22.71
2022-08-20T17:23:31.027Z,22.51
2022-08-20T17:28:35.704Z,22.33
2022-08-20T17:33:39.662Z,22.24
2022-08-20T17:38:52.870Z,22.22
2022-08-20T17:44:07.717Z,22.14
2022-08-20T17:49:13.108Z,22.04
2022-08-20T17:54:27.301Z,21.93
2022-08-20T18:00:00.925Z,21.83
2022-08-20T18:05:06.662Z,21.79
2022-08-20T18:10:14.502Z,21.83
2022-08-20T18:15:23.764Z,21.85
2022-08-20T18:20:37.758Z,21.82
2022-08-20T18:25:54.886Z,21.68
2022-08-20T18:31:02.112Z,21.52
2022-08-20T18:36:07.115Z,21.47
2022-08-20T18:41:30.061Z,21.46
2022-08-20T18:46:34.043Z,21.48
2022-08-20T18:51:42.616Z,21.55
2022-08-20T18:56:45.286Z,21.49
2022-08-20T19:01:49.515Z,21.39
2022-08-20T19:06:58.044Z,21.32
2022-08-20T19:12:05.139Z,21.29
2022-08-20T19:17:15.065Z,21.34
2022-08-20T19:22:20.898Z,21.40
2022-08-20T19:27:24.697Z,21.27
2022-08-20T19:32:33.010Z,20.98
2022-08-20T19:37:50.839Z,20.73
2022-08-20T19:42:56.227Z,20.68
2022-08-20T19:48:27.385Z,20.61
2022-08-20T19:53:33.412Z,20.44
2022-08-20T19:58:37.494Z,20.31
2022-08-20T20:03:40.677Z,20.15
2022-08-20T20:08:55.094Z,20.05
2022-08-20T20:14:04.518Z,20.01
2022-08-20T20:19:25.847Z,19.98
2022-08-20T20:24:31.652Z,19.99
2022-08-20T20:29:37.041Z,19.96
2022-08-20T20:34:55.066Z,19.88
2022-08-20T20:40:19.062Z,19.74
2022-08-20T20:45:32.154Z,19.62
2022-08-20T20:50:36.899Z,19.20
2022-08-20T20:55:41.911Z,18.41
2022-08-20T21:00:44.596Z,18.09
2022-08-20T21:05:47.535Z,18.00
2022-08-20T21:10:50.280Z,17.96
2022-08-20T21:15:53.038Z,17.91
2022-08-20T21:20:55.821Z,17.92
2022-08-20T21:26:00.124Z,17.92
2022-08-20T21:31:03.145Z,17.88
2022-08-20T21:36:06.402Z,17.89
2022-08-20T21:41:09.210Z,17.91
2022-08-20T21:46:12.735Z,17.96
2022-08-20T21:51:15.656Z,18.15
2022-08-20T21:56:18.527Z,18.37
2022-08-20T22:01:21.574Z,18.39
2022-08-20T22:06:24.972Z,18.51
2022-08-20T22:11:28.195Z,18.65
2022-08-20T22:16:30.972Z,18.54
2022-08-20T22:21:35.245Z,18.55
2022-08-20T22:26:40.334Z,18.73
2022-08-20T22:31:44.040Z,18.79
2022-08-20T22:36:48.054Z,18.88
2022-08-20T22:41:50.986Z,18.90
2022-08-20T22:46:56.795Z,18.92
2022-08-20T22:52:00.218Z,18.97
2022-08-20T22:57:03.439Z,18.99
2022-08-20T23:02:12.924Z,19.00
2022-08-20T23:07:17.990Z,19.03
2022-08-20T23:12:20.782Z,19.04
2022-08-20T23:17:23.745Z,19.03
2022-08-20T23:22:26.602Z,19.13
2022-08-20T23:27:29.689Z,19.21
2022-08-20T23:32:32.383Z,19.27
2022-08-20T23:37:40.300Z,19.30
2022-08-20T23:42:43.277Z,19.42
2022-08-20T23:47:46.380Z,19.55
2022-08-20T23:52:49.245Z,19.68
2022-08-20T23:57:52.370Z,19.58
